sensor_id;sensor_type;location;lat;lon;timestamp;temperature;humidity
45012;DHT22;63444;48.148;11.542;2023-04-19T00:00:33;10.60;99.90
45012;DHT22;63444;48.148;11.542;2023-04-19T00:03:00;10.60;99.90
45012;DHT22;63444;48.148;11.542;2023-04-19T00:05:27;10.50;99.90
45012;DHT22;63444;48.148;11.542;2023-04-19T00:07:53;10.60;99.90
45012;DHT22;63444;48.148;11.542;2023-04-19T00:10:19;10.50;99.90
45012;DHT22;63444;48.148;11.542;2023-04-19T00:12:45;10.70;99.90
45012;DHT22;63444;48.148;11.542;2023-04-19T00:15:10;10.50;99.90
45012;DHT22;63444;48.148;11.542;2023-04-19T00:17:36;10.50;99.90
45012;DHT22;63444;48.148;11.542;2023-04-19T00:20:02;10.50;99.90
45012;DHT22;63444;48.148;11.542;2023-04-19T00:22:28;10.50;99.90
45012;DHT22;63444;48.148;11.542;2023-04-19T00:24:54;10.50;99.90
45012;DHT22;63444;48.148;11.542;2023-04-19T00:27:19;10.50;99.90
45012;DHT22;63444;48.148;11.542;2023-04-19T00:29:45;10.60;99.90
45012;DHT22;63444;48.148;11.542;2023-04-19T00:32:11;10.40;99.90
45012;DHT22;63444;48.148;11.542;2023-04-19T00:34:37;10.40;99.90
45012;DHT22;63444;48.148;11.542;2023-04-19T00:37:02;10.40;99.90
45012;DHT22;63444;48.148;11.542;2023-04-19T00:39:31;10.50;99.90
45012;DHT22;63444;48.148;11.542;2023-04-19T00:41:56;10.40;99.90
45012;DHT22;63444;48.148;11.542;2023-04-19T00:44:22;10.40;99.90
45012;DHT22;63444;48.148;11.542;2023-04-19T00:46:48;10.50;99.90
45012;DHT22;63444;48.148;11.542;2023-04-19T00:49:15;10.40;99.90
45012;DHT22;63444;48.148;11.542;2023-04-19T00:51:42;10.40;99.90
45012;DHT22;63444;48.148;11.542;2023-04-19T00:54:07;10.40;99.90
45012;DHT22;63444;48.148;11.542;2023-04-19T00:56:34;10.40;99.90
45012;DHT22;63444;48.148;11.542;2023-04-19T00:59:00;10.40;99.90
45012;DHT22;63444;48.148;11.542;2023-04-19T01:01:26;10.40;99.90
45012;DHT22;63444;48.148;11.542;2023-04-19T01:03:52;10.30;99.90
45012;DHT22;63444;48.148;11.542;2023-04-19T01:06:17;10.50;99.90
45012;DHT22;63444;48.148;11.542;2023-04-19T01:08:43;10.30;99.90
45012;DHT22;63444;48.148;11.542;2023-04-19T01:11:09;10.50;99.90
45012;DHT22;63444;48.148;11.542;2023-04-19T01:13:34;10.30;99.90
45012;DHT22;63444;48.148;11.542;2023-04-19T01:16:00;10.30;99.90
45012;DHT22;63444;48.148;11.542;2023-04-19T01:18:25;10.30;99.90
45012;DHT22;63444;48.148;11.542;2023-04-19T01:20:59;10.30;99.90
45012;DHT22;63444;48.148;11.542;2023-04-19T01:23:25;10.30;99.90
45012;DHT22;63444;48.148;11.542;2023-04-19T01:25:51;10.30;99.90
45012;DHT22;63444;48.148;11.542;2023-04-19T01:28:16;10.50;99.90
45012;DHT22;63444;48.148;11.542;2023-04-19T01:30:42;10.30;99.90
45012;DHT22;63444;48.148;11.542;2023-04-19T01:33:07;10.30;99.90
45012;DHT22;63444;48.148;11.542;2023-04-19T01:35:33;10.30;99.90
45012;DHT22;63444;48.148;11.542;2023-04-19T01:37:59;10.30;99.90
45012;DHT22;63444;48.148;11.542;2023-04-19T01:40:25;10.40;99.90
45012;DHT22;63444;48.148;11.542;2023-04-19T01:42:51;10.30;99.90
45012;DHT22;63444;48.148;11.542;2023-04-19T01:45:17;10.40;99.90
45012;DHT22;63444;48.148;11.542;2023-04-19T01:47:43;10.40;99.90
45012;DHT22;63444;48.148;11.542;2023-04-19T01:50:09;10.30;99.90
45012;DHT22;63444;48.148;11.542;2023-04-19T01:52:34;10.40;99.90
45012;DHT22;63444;48.148;11.542;2023-04-19T01:55:00;10.30;99.90
45012;DHT22;63444;48.148;11.542;2023-04-19T01:57:25;10.40;99.90
45012;DHT22;63444;48.148;11.542;2023-04-19T01:59:54;10.30;99.90
45012;DHT22;63444;48.148;11.542;2023-04-19T02:02:20;10.30;99.90
45012;DHT22;63444;48.148;11.542;2023-04-19T02:04:46;10.30;99.90
45012;DHT22;63444;48.148;11.542;2023-04-19T02:07:11;10.30;99.90
45012;DHT22;63444;48.148;11.542;2023-04-19T02:09:37;10.30;99.90
45012;DHT22;63444;48.148;11.542;2023-04-19T02:12:03;10.40;99.90
45012;DHT22;63444;48.148;11.542;2023-04-19T02:14:30;10.40;99.90
45012;DHT22;63444;48.148;11.542;2023-04-19T02:16:56;10.60;99.90
45012;DHT22;63444;48.148;11.542;2023-04-19T02:19:22;10.40;99.90
45012;DHT22;63444;48.148;11.542;2023-04-19T02:21:47;10.50;99.90
45012;DHT22;63444;48.148;11.542;2023-04-19T02:24:13;10.40;99.90
45012;DHT22;63444;48.148;11.542;2023-04-19T02:26:39;10.40;99.90
45012;DHT22;63444;48.148;11.542;2023-04-19T02:29:05;10.40;99.90
45012;DHT22;63444;48.148;11.542;2023-04-19T02:31:31;10.40;99.90
45012;DHT22;63444;48.148;11.542;2023-04-19T02:33:56;10.40;99.90
45012;DHT22;63444;48.148;11.542;2023-04-19T02:36:22;10.40;99.90
45012;DHT22;63444;48.148;11.542;2023-04-19T02:38:48;10.40;99.90
45012;DHT22;63444;48.148;11.542;2023-04-19T02:41:13;10.40;99.90
45012;DHT22;63444;48.148;11.542;2023-04-19T02:43:40;10.40;99.90
45012;DHT22;63444;48.148;11.542;2023-04-19T02:46:05;10.40;99.90
45012;DHT22;63444;48.148;11.542;2023-04-19T02:48:31;10.30;99.90
45012;DHT22;63444;48.148;11.542;2023-04-19T02:50:57;10.30;99.90
45012;DHT22;63444;48.148;11.542;2023-04-19T02:53:23;10.50;99.90
45012;DHT22;63444;48.148;11.542;2023-04-19T02:55:49;10.40;99.90
45012;DHT22;63444;48.148;11.542;2023-04-19T02:58:15;10.30;99.90
45012;DHT22;63444;48.148;11.542;2023-04-19T03:00:40;10.30;99.90
45012;DHT22;63444;48.148;11.542;2023-04-19T03:03:06;10.30;99.90
45012;DHT22;63444;48.148;11.542;2023-04-19T03:05:32;10.30;99.90
45012;DHT22;63444;48.148;11.542;2023-04-19T03:07:58;10.30;99.90
45012;DHT22;63444;48.148;11.542;2023-04-19T03:10:23;10.20;99.90
45012;DHT22;63444;48.148;11.542;2023-04-19T03:12:49;10.10;99.90
45012;DHT22;63444;48.148;11.542;2023-04-19T03:15:15;10.30;99.90
45012;DHT22;63444;48.148;11.542;2023-04-19T03:17:40;10.20;99.90
45012;DHT22;63444;48.148;11.542;2023-04-19T03:20:07;10.20;99.90
45012;DHT22;63444;48.148;11.542;2023-04-19T03:22:42;10.20;99.90
45012;DHT22;63444;48.148;11.542;2023-04-19T03:25:08;10.20;99.90
45012;DHT22;63444;48.148;11.542;2023-04-19T03:27:36;10.20;99.90
45012;DHT22;63444;48.148;11.542;2023-04-19T03:30:02;10.10;99.90
45012;DHT22;63444;48.148;11.542;2023-04-19T03:32:28;10.10;99.90
45012;DHT22;63444;48.148;11.542;2023-04-19T03:34:53;10.00;99.90
45012;DHT22;63444;48.148;11.542;2023-04-19T03:37:19;10.10;99.90
45012;DHT22;63444;48.148;11.542;2023-04-19T03:39:45;10.10;99.90
45012;DHT22;63444;48.148;11.542;2023-04-19T03:42:10;10.20;99.90
45012;DHT22;63444;48.148;11.542;2023-04-19T03:44:36;10.10;99.90
45012;DHT22;63444;48.148;11.542;2023-04-19T03:47:01;10.00;99.90
45012;DHT22;63444;48.148;11.542;2023-04-19T03:49:27;10.10;99.90
45012;DHT22;63444;48.148;11.542;2023-04-19T03:51:52;10.10;99.90
45012;DHT22;63444;48.148;11.542;2023-04-19T03:54:18;10.10;99.90
45012;DHT22;63444;48.148;11.542;2023-04-19T03:56:43;10.20;99.90
45012;DHT22;63444;48.148;11.542;2023-04-19T03:59:09;10.10;99.90
45012;DHT22;63444;48.148;11.542;2023-04-19T04:01:35;10.10;99.90
45012;DHT22;63444;48.148;11.542;2023-04-19T04:04:08;10.10;99.90
45012;DHT22;63444;48.148;11.542;2023-04-19T04:06:34;10.20;99.90
45012;DHT22;63444;48.148;11.542;2023-04-19T04:09:00;10.10;99.90
45012;DHT22;63444;48.148;11.542;2023-04-19T04:11:26;10.10;99.90
45012;DHT22;63444;48.148;11.542;2023-04-19T04:13:52;10.10;99.90
45012;DHT22;63444;48.148;11.542;2023-04-19T04:16:17;10.10;99.90
45012;DHT22;63444;48.148;11.542;2023-04-19T04:18:43;10.10;99.90
45012;DHT22;63444;48.148;11.542;2023-04-19T04:21:08;10.10;99.90
45012;DHT22;63444;48.148;11.542;2023-04-19T04:23:34;10.10;99.90
45012;DHT22;63444;48.148;11.542;2023-04-19T04:26:00;10.10;99.90
45012;DHT22;63444;48.148;11.542;2023-04-19T04:28:27;10.10;99.90
45012;DHT22;63444;48.148;11.542;2023-04-19T04:30:54;10.30;99.90
45012;DHT22;63444;48.148;11.542;2023-04-19T04:33:26;10.10;99.90
45012;DHT22;63444;48.148;11.542;2023-04-19T04:35:53;10.10;99.90
45012;DHT22;63444;48.148;11.542;2023-04-19T04:38:19;10.10;99.90
45012;DHT22;63444;48.148;11.542;2023-04-19T04:40:53;10.10;99.90
45012;DHT22;63444;48.148;11.542;2023-04-19T04:43:19;10.10;99.90
45012;DHT22;63444;48.148;11.542;2023-04-19T04:45:46;10.20;99.90
45012;DHT22;63444;48.148;11.542;2023-04-19T04:48:12;10.10;99.90
45012;DHT22;63444;48.148;11.542;2023-04-19T04:50:37;10.20;99.90
45012;DHT22;63444;48.148;11.542;2023-04-19T04:53:03;10.20;99.90
45012;DHT22;63444;48.148;11.542;2023-04-19T04:55:29;10.10;99.90
45012;DHT22;63444;48.148;11.542;2023-04-19T04:57:55;10.20;99.90
45012;DHT22;63444;48.148;11.542;2023-04-19T05:00:21;10.10;99.90
45012;DHT22;63444;48.148;11.542;2023-04-19T05:02:47;10.10;99.90
45012;DHT22;63444;48.148;11.542;2023-04-19T05:05:12;10.10;99.90
45012;DHT22;63444;48.148;11.542;2023-04-19T05:07:38;10.20;99.90
45012;DHT22;63444;48.148;11.542;2023-04-19T05:10:04;9.90;99.90
45012;DHT22;63444;48.148;11.542;2023-04-19T05:12:32;10.10;99.90
45012;DHT22;63444;48.148;11.542;2023-04-19T05:14:58;10.10;99.90
45012;DHT22;63444;48.148;11.542;2023-04-19T05:17:24;10.20;99.90
45012;DHT22;63444;48.148;11.542;2023-04-19T05:19:49;10.10;99.90
45012;DHT22;63444;48.148;11.542;2023-04-19T05:22:15;10.20;99.90
45012;DHT22;63444;48.148;11.542;2023-04-19T05:24:41;10.20;99.90
45012;DHT22;63444;48.148;11.542;2023-04-19T05:27:07;10.10;99.90
45012;DHT22;63444;48.148;11.542;2023-04-19T05:29:34;10.10;99.90
45012;DHT22;63444;48.148;11.542;2023-04-19T05:31:59;10.10;99.90
45012;DHT22;63444;48.148;11.542;2023-04-19T05:34:25;10.10;99.90
45012;DHT22;63444;48.148;11.542;2023-04-19T05:36:52;10.20;99.90
45012;DHT22;63444;48.148;11.542;2023-04-19T05:39:18;10.20;99.90
45012;DHT22;63444;48.148;11.542;2023-04-19T05:41:43;10.20;99.90
45012;DHT22;63444;48.148;11.542;2023-04-19T05:44:09;10.20;99.90
45012;DHT22;63444;48.148;11.542;2023-04-19T05:46:35;10.20;99.90
45012;DHT22;63444;48.148;11.542;2023-04-19T05:49:01;10.10;99.90
45012;DHT22;63444;48.148;11.542;2023-04-19T05:51:27;10.10;99.90
45012;DHT22;63444;48.148;11.542;2023-04-19T05:53:53;10.10;99.90
45012;DHT22;63444;48.148;11.542;2023-04-19T05:56:19;10.00;99.90
45012;DHT22;63444;48.148;11.542;2023-04-19T05:58:44;10.00;99.90
45012;DHT22;63444;48.148;11.542;2023-04-19T06:01:10;10.20;99.90
45012;DHT22;63444;48.148;11.542;2023-04-19T06:03:37;10.00;99.90
45012;DHT22;63444;48.148;11.542;2023-04-19T06:06:03;10.10;99.90
45012;DHT22;63444;48.148;11.542;2023-04-19T06:08:28;10.10;99.90
45012;DHT22;63444;48.148;11.542;2023-04-19T06:10:54;10.10;99.90
45012;DHT22;63444;48.148;11.542;2023-04-19T06:13:21;10.10;99.90
45012;DHT22;63444;48.148;11.542;2023-04-19T06:15:47;10.10;99.90
45012;DHT22;63444;48.148;11.542;2023-04-19T06:18:15;10.10;99.90
45012;DHT22;63444;48.148;11.542;2023-04-19T06:20:41;10.20;99.90
45012;DHT22;63444;48.148;11.542;2023-04-19T06:23:07;10.20;99.90
45012;DHT22;63444;48.148;11.542;2023-04-19T06:25:34;10.10;99.90
45012;DHT22;63444;48.148;11.542;2023-04-19T06:28:00;10.20;99.90
45012;DHT22;63444;48.148;11.542;2023-04-19T06:30:31;10.20;99.90
45012;DHT22;63444;48.148;11.542;2023-04-19T06:32:56;10.20;99.90
45012;DHT22;63444;48.148;11.542;2023-04-19T06:35:23;10.20;99.90
45012;DHT22;63444;48.148;11.542;2023-04-19T06:37:49;10.20;99.90
45012;DHT22;63444;48.148;11.542;2023-04-19T06:40:15;10.10;99.90
45012;DHT22;63444;48.148;11.542;2023-04-19T06:42:41;10.20;99.90
45012;DHT22;63444;48.148;11.542;2023-04-19T06:45:07;10.20;99.90
45012;DHT22;63444;48.148;11.542;2023-04-19T06:47:34;10.20;99.90
45012;DHT22;63444;48.148;11.542;2023-04-19T06:50:00;10.30;99.90
45012;DHT22;63444;48.148;11.542;2023-04-19T06:52:26;10.30;99.90
45012;DHT22;63444;48.148;11.542;2023-04-19T06:54:54;10.20;99.90
45012;DHT22;63444;48.148;11.542;2023-04-19T06:57:20;10.30;99.90
45012;DHT22;63444;48.148;11.542;2023-04-19T06:59:47;10.30;99.90
45012;DHT22;63444;48.148;11.542;2023-04-19T07:02:13;10.30;99.90
45012;DHT22;63444;48.148;11.542;2023-04-19T07:04:38;10.30;99.90
45012;DHT22;63444;48.148;11.542;2023-04-19T07:07:04;10.30;99.90
45012;DHT22;63444;48.148;11.542;2023-04-19T07:09:30;10.30;99.90
45012;DHT22;63444;48.148;11.542;2023-04-19T07:11:57;10.30;99.90
45012;DHT22;63444;48.148;11.542;2023-04-19T07:14:29;10.30;99.90
45012;DHT22;63444;48.148;11.542;2023-04-19T07:16:57;10.40;99.90
45012;DHT22;63444;48.148;11.542;2023-04-19T07:19:23;10.30;99.90
45012;DHT22;63444;48.148;11.542;2023-04-19T07:21:51;10.40;99.90
45012;DHT22;63444;48.148;11.542;2023-04-19T07:24:20;10.40;99.90
45012;DHT22;63444;48.148;11.542;2023-04-19T07:26:46;10.40;99.90
45012;DHT22;63444;48.148;11.542;2023-04-19T07:29:11;10.40;99.90
45012;DHT22;63444;48.148;11.542;2023-04-19T07:31:38;10.40;99.90
45012;DHT22;63444;48.148;11.542;2023-04-19T07:34:06;10.40;99.90
45012;DHT22;63444;48.148;11.542;2023-04-19T07:36:32;10.50;99.90
45012;DHT22;63444;48.148;11.542;2023-04-19T07:38:59;10.50;99.90
45012;DHT22;63444;48.148;11.542;2023-04-19T07:41:27;10.50;99.90
45012;DHT22;63444;48.148;11.542;2023-04-19T07:43:55;10.50;99.90
45012;DHT22;63444;48.148;11.542;2023-04-19T07:46:28;10.40;99.90
45012;DHT22;63444;48.148;11.542;2023-04-19T07:48:53;10.50;99.90
45012;DHT22;63444;48.148;11.542;2023-04-19T07:51:20;10.60;99.90
45012;DHT22;63444;48.148;11.542;2023-04-19T07:53:49;10.70;99.90
45012;DHT22;63444;48.148;11.542;2023-04-19T07:56:17;10.70;99.90
45012;DHT22;63444;48.148;11.542;2023-04-19T07:58:46;10.70;99.90
45012;DHT22;63444;48.148;11.542;2023-04-19T08:01:15;10.60;99.90
45012;DHT22;63444;48.148;11.542;2023-04-19T08:03:42;10.70;99.90
45012;DHT22;63444;48.148;11.542;2023-04-19T08:06:11;10.80;99.90
45012;DHT22;63444;48.148;11.542;2023-04-19T08:08:38;10.70;99.90
45012;DHT22;63444;48.148;11.542;2023-04-19T08:11:05;10.80;99.90
45012;DHT22;63444;48.148;11.542;2023-04-19T08:13:31;10.70;99.90
45012;DHT22;63444;48.148;11.542;2023-04-19T08:15:57;10.70;99.90
45012;DHT22;63444;48.148;11.542;2023-04-19T08:18:24;10.70;99.90
45012;DHT22;63444;48.148;11.542;2023-04-19T08:20:51;10.80;99.90
45012;DHT22;63444;48.148;11.542;2023-04-19T08:23:17;10.90;99.90
45012;DHT22;63444;48.148;11.542;2023-04-19T08:25:42;10.90;99.90
45012;DHT22;63444;48.148;11.542;2023-04-19T08:28:09;10.80;99.90
45012;DHT22;63444;48.148;11.542;2023-04-19T08:30:43;10.90;99.90
45012;DHT22;63444;48.148;11.542;2023-04-19T08:33:09;10.90;99.90
45012;DHT22;63444;48.148;11.542;2023-04-19T08:35:40;11.00;99.90
45012;DHT22;63444;48.148;11.542;2023-04-19T08:38:07;11.10;99.90
45012;DHT22;63444;48.148;11.542;2023-04-19T08:40:32;11.20;99.90
45012;DHT22;63444;48.148;11.542;2023-04-19T08:42:58;11.30;99.90
45012;DHT22;63444;48.148;11.542;2023-04-19T08:45:26;11.30;99.90
45012;DHT22;63444;48.148;11.542;2023-04-19T08:47:53;11.40;99.90
45012;DHT22;63444;48.148;11.542;2023-04-19T08:50:20;11.40;99.90
45012;DHT22;63444;48.148;11.542;2023-04-19T08:52:47;11.40;99.90
45012;DHT22;63444;48.148;11.542;2023-04-19T08:55:14;11.40;99.90
45012;DHT22;63444;48.148;11.542;2023-04-19T08:57:41;11.40;99.90
45012;DHT22;63444;48.148;11.542;2023-04-19T09:00:08;11.30;99.90
45012;DHT22;63444;48.148;11.542;2023-04-19T09:02:50;11.20;99.90
45012;DHT22;63444;48.148;11.542;2023-04-19T09:05:17;11.20;99.90
45012;DHT22;63444;48.148;11.542;2023-04-19T09:07:45;11.20;99.90
45012;DHT22;63444;48.148;11.542;2023-04-19T09:10:18;11.30;99.90
45012;DHT22;63444;48.148;11.542;2023-04-19T09:13:07;11.30;99.90
45012;DHT22;63444;48.148;11.542;2023-04-19T09:15:39;11.10;99.90
45012;DHT22;63444;48.148;11.542;2023-04-19T09:18:09;11.10;99.90
45012;DHT22;63444;48.148;11.542;2023-04-19T09:20:41;11.10;99.90
45012;DHT22;63444;48.148;11.542;2023-04-19T09:23:13;11.20;99.90
45012;DHT22;63444;48.148;11.542;2023-04-19T09:26:00;11.20;99.90
45012;DHT22;63444;48.148;11.542;2023-04-19T09:28:30;11.40;99.90
45012;DHT22;63444;48.148;11.542;2023-04-19T09:30:57;11.40;99.90
45012;DHT22;63444;48.148;11.542;2023-04-19T09:33:42;11.40;99.90
45012;DHT22;63444;48.148;11.542;2023-04-19T09:36:10;11.40;99.90
45012;DHT22;63444;48.148;11.542;2023-04-19T09:38:50;11.40;99.90
45012;DHT22;63444;48.148;11.542;2023-04-19T09:41:19;11.50;99.90
45012;DHT22;63444;48.148;11.542;2023-04-19T09:43:48;11.50;99.90
45012;DHT22;63444;48.148;11.542;2023-04-19T09:46:30;11.60;99.90
45012;DHT22;63444;48.148;11.542;2023-04-19T09:49:20;11.70;99.90
45012;DHT22;63444;48.148;11.542;2023-04-19T09:51:54;11.80;99.90
45012;DHT22;63444;48.148;11.542;2023-04-19T09:54:23;11.90;99.90
45012;DHT22;63444;48.148;11.542;2023-04-19T09:56:54;12.10;99.90
45012;DHT22;63444;48.148;11.542;2023-04-19T09:59:23;12.20;99.90
45012;DHT22;63444;48.148;11.542;2023-04-19T10:01:54;12.30;99.90
45012;DHT22;63444;48.148;11.542;2023-04-19T10:04:25;12.40;99.90
45012;DHT22;63444;48.148;11.542;2023-04-19T10:06:54;12.40;99.90
45012;DHT22;63444;48.148;11.542;2023-04-19T10:09:21;12.30;99.90
45012;DHT22;63444;48.148;11.542;2023-04-19T10:11:53;12.40;99.90
45012;DHT22;63444;48.148;11.542;2023-04-19T10:14:23;12.50;99.90
45012;DHT22;63444;48.148;11.542;2023-04-19T10:16:50;12.40;99.90
45012;DHT22;63444;48.148;11.542;2023-04-19T10:19:25;12.60;99.90
45012;DHT22;63444;48.148;11.542;2023-04-19T10:21:52;12.50;99.90
45012;DHT22;63444;48.148;11.542;2023-04-19T10:24:23;12.80;99.90
45012;DHT22;63444;48.148;11.542;2023-04-19T10:27:11;13.20;99.90
45012;DHT22;63444;48.148;11.542;2023-04-19T10:30:15;13.60;99.90
45012;DHT22;63444;48.148;11.542;2023-04-19T10:32:43;13.70;99.90
45012;DHT22;63444;48.148;11.542;2023-04-19T10:35:20;14.00;99.90
45012;DHT22;63444;48.148;11.542;2023-04-19T10:38:06;13.80;99.90
45012;DHT22;63444;48.148;11.542;2023-04-19T10:43:17;13.60;99.90
45012;DHT22;63444;48.148;11.542;2023-04-19T10:45:43;13.30;99.90
45012;DHT22;63444;48.148;11.542;2023-04-19T10:51:03;13.20;99.90
45012;DHT22;63444;48.148;11.542;2023-04-19T10:53:52;13.00;99.90
45012;DHT22;63444;48.148;11.542;2023-04-19T11:07:06;12.90;99.90
45012;DHT22;63444;48.148;11.542;2023-04-19T11:14:36;12.70;99.90
45012;DHT22;63444;48.148;11.542;2023-04-19T11:17:12;12.60;99.90
45012;DHT22;63444;48.148;11.542;2023-04-19T11:19:53;12.40;99.90
45012;DHT22;63444;48.148;11.542;2023-04-19T11:22:45;12.40;99.90
45012;DHT22;63444;48.148;11.542;2023-04-19T11:25:19;12.50;99.90
45012;DHT22;63444;48.148;11.542;2023-04-19T11:27:47;12.50;99.90
45012;DHT22;63444;48.148;11.542;2023-04-19T11:30:15;12.50;99.90
45012;DHT22;63444;48.148;11.542;2023-04-19T11:32:55;12.40;99.90
45012;DHT22;63444;48.148;11.542;2023-04-19T11:35:24;12.30;99.90
45012;DHT22;63444;48.148;11.542;2023-04-19T11:37:50;12.40;99.90
45012;DHT22;63444;48.148;11.542;2023-04-19T11:40:18;12.40;99.90
45012;DHT22;63444;48.148;11.542;2023-04-19T11:42:45;12.30;99.90
45012;DHT22;63444;48.148;11.542;2023-04-19T11:45:27;12.40;99.90
45012;DHT22;63444;48.148;11.542;2023-04-19T11:47:55;12.30;99.90
45012;DHT22;63444;48.148;11.542;2023-04-19T11:50:52;12.40;99.90
45012;DHT22;63444;48.148;11.542;2023-04-19T11:53:27;12.30;99.90
45012;DHT22;63444;48.148;11.542;2023-04-19T11:56:08;12.30;99.90
45012;DHT22;63444;48.148;11.542;2023-04-19T11:58:43;12.20;99.90
45012;DHT22;63444;48.148;11.542;2023-04-19T12:01:20;12.10;99.90
45012;DHT22;63444;48.148;11.542;2023-04-19T12:03:52;12.10;99.90
45012;DHT22;63444;48.148;11.542;2023-04-19T12:06:41;12.10;99.90
45012;DHT22;63444;48.148;11.542;2023-04-19T12:09:07;12.10;99.90
45012;DHT22;63444;48.148;11.542;2023-04-19T12:11:52;12.10;99.90
45012;DHT22;63444;48.148;11.542;2023-04-19T12:14:20;12.00;99.90
45012;DHT22;63444;48.148;11.542;2023-04-19T12:17:22;12.00;99.90
45012;DHT22;63444;48.148;11.542;2023-04-19T12:19:50;12.00;99.90
45012;DHT22;63444;48.148;11.542;2023-04-19T12:22:18;12.00;99.90
45012;DHT22;63444;48.148;11.542;2023-04-19T12:25:08;12.00;99.90
45012;DHT22;63444;48.148;11.542;2023-04-19T12:27:35;11.90;99.90
45012;DHT22;63444;48.148;11.542;2023-04-19T12:30:01;11.80;99.90
45012;DHT22;63444;48.148;11.542;2023-04-19T12:32:26;11.80;99.90
45012;DHT22;63444;48.148;11.542;2023-04-19T12:34:52;11.80;99.90
45012;DHT22;63444;48.148;11.542;2023-04-19T12:37:18;11.90;99.90
45012;DHT22;63444;48.148;11.542;2023-04-19T12:39:43;11.90;99.90
45012;DHT22;63444;48.148;11.542;2023-04-19T12:42:10;11.70;99.90
45012;DHT22;63444;48.148;11.542;2023-04-19T12:44:36;11.80;99.90
45012;DHT22;63444;48.148;11.542;2023-04-19T12:47:02;11.70;99.90
45012;DHT22;63444;48.148;11.542;2023-04-19T12:49:28;11.70;99.90
45012;DHT22;63444;48.148;11.542;2023-04-19T12:51:55;11.70;99.90
45012;DHT22;63444;48.148;11.542;2023-04-19T12:54:22;11.70;99.90
45012;DHT22;63444;48.148;11.542;2023-04-19T12:56:48;11.70;99.90
45012;DHT22;63444;48.148;11.542;2023-04-19T12:59:15;11.70;99.90
45012;DHT22;63444;48.148;11.542;2023-04-19T13:01:40;11.70;99.90
45012;DHT22;63444;48.148;11.542;2023-04-19T13:04:06;11.70;99.90
45012;DHT22;63444;48.148;11.542;2023-04-19T13:06:37;11.70;99.90
45012;DHT22;63444;48.148;11.542;2023-04-19T13:09:03;11.70;99.90
45012;DHT22;63444;48.148;11.542;2023-04-19T13:11:30;11.70;99.90
45012;DHT22;63444;48.148;11.542;2023-04-19T13:13:57;11.70;99.90
45012;DHT22;63444;48.148;11.542;2023-04-19T13:16:26;11.80;99.90
45012;DHT22;63444;48.148;11.542;2023-04-19T13:19:09;11.80;99.90
45012;DHT22;63444;48.148;11.542;2023-04-19T13:21:35;11.80;99.90
45012;DHT22;63444;48.148;11.542;2023-04-19T13:24:04;11.80;99.90
45012;DHT22;63444;48.148;11.542;2023-04-19T13:26:39;11.80;99.90
45012;DHT22;63444;48.148;11.542;2023-04-19T13:29:18;11.90;99.90
45012;DHT22;63444;48.148;11.542;2023-04-19T13:31:54;11.70;99.90
45012;DHT22;63444;48.148;11.542;2023-04-19T13:34:21;11.70;99.90
45012;DHT22;63444;48.148;11.542;2023-04-19T13:37:08;11.70;99.90
45012;DHT22;63444;48.148;11.542;2023-04-19T13:39:43;11.70;99.90
45012;DHT22;63444;48.148;11.542;2023-04-19T13:42:34;11.70;99.90
45012;DHT22;63444;48.148;11.542;2023-04-19T13:45:13;11.70;99.90
45012;DHT22;63444;48.148;11.542;2023-04-19T13:47:41;11.60;99.90
45012;DHT22;63444;48.148;11.542;2023-04-19T13:50:07;11.70;99.90
45012;DHT22;63444;48.148;11.542;2023-04-19T13:52:33;11.70;99.90
45012;DHT22;63444;48.148;11.542;2023-04-19T13:54:59;11.70;99.90
45012;DHT22;63444;48.148;11.542;2023-04-19T13:57:24;11.80;99.90
45012;DHT22;63444;48.148;11.542;2023-04-19T13:59:50;11.60;99.90
45012;DHT22;63444;48.148;11.542;2023-04-19T14:02:16;11.70;99.90
45012;DHT22;63444;48.148;11.542;2023-04-19T14:04:41;11.70;99.90
45012;DHT22;63444;48.148;11.542;2023-04-19T14:07:07;11.70;99.90
45012;DHT22;63444;48.148;11.542;2023-04-19T14:09:34;11.80;99.90
45012;DHT22;63444;48.148;11.542;2023-04-19T14:12:00;11.50;99.90
45012;DHT22;63444;48.148;11.542;2023-04-19T14:14:28;11.50;99.90
45012;DHT22;63444;48.148;11.542;2023-04-19T14:16:54;11.40;99.90
45012;DHT22;63444;48.148;11.542;2023-04-19T14:19:19;11.40;99.90
45012;DHT22;63444;48.148;11.542;2023-04-19T14:21:45;11.00;99.90
45012;DHT22;63444;48.148;11.542;2023-04-19T14:24:10;11.00;99.90
45012;DHT22;63444;48.148;11.542;2023-04-19T14:26:36;11.00;99.90
45012;DHT22;63444;48.148;11.542;2023-04-19T14:29:02;10.90;99.90
45012;DHT22;63444;48.148;11.542;2023-04-19T14:31:27;10.70;99.90
45012;DHT22;63444;48.148;11.542;2023-04-19T14:33:53;10.60;99.90
45012;DHT22;63444;48.148;11.542;2023-04-19T14:36:19;10.60;99.90
45012;DHT22;63444;48.148;11.542;2023-04-19T14:38:45;10.60;99.90
45012;DHT22;63444;48.148;11.542;2023-04-19T14:41:10;10.50;99.90
45012;DHT22;63444;48.148;11.542;2023-04-19T14:43:36;10.40;99.90
45012;DHT22;63444;48.148;11.542;2023-04-19T14:46:01;10.40;99.90
45012;DHT22;63444;48.148;11.542;2023-04-19T14:48:27;10.30;99.90
45012;DHT22;63444;48.148;11.542;2023-04-19T14:50:53;10.30;99.90
45012;DHT22;63444;48.148;11.542;2023-04-19T14:53:18;10.30;99.90
45012;DHT22;63444;48.148;11.542;2023-04-19T14:55:44;10.20;99.90
45012;DHT22;63444;48.148;11.542;2023-04-19T14:58:09;10.00;99.90
45012;DHT22;63444;48.148;11.542;2023-04-19T15:00:35;10.20;99.90
45012;DHT22;63444;48.148;11.542;2023-04-19T15:03:01;10.00;99.90
45012;DHT22;63444;48.148;11.542;2023-04-19T15:05:26;9.80;99.90
45012;DHT22;63444;48.148;11.542;2023-04-19T15:07:52;9.50;99.90
45012;DHT22;63444;48.148;11.542;2023-04-19T15:10:18;9.60;99.90
45012;DHT22;63444;48.148;11.542;2023-04-19T15:12:43;9.60;99.90
45012;DHT22;63444;48.148;11.542;2023-04-19T15:15:09;9.60;99.90
45012;DHT22;63444;48.148;11.542;2023-04-19T15:17:35;9.50;99.90
45012;DHT22;63444;48.148;11.542;2023-04-19T15:20:02;9.40;99.90
45012;DHT22;63444;48.148;11.542;2023-04-19T15:22:29;9.40;99.90
45012;DHT22;63444;48.148;11.542;2023-04-19T15:24:54;9.50;99.90
45012;DHT22;63444;48.148;11.542;2023-04-19T15:27:20;9.40;99.90
45012;DHT22;63444;48.148;11.542;2023-04-19T15:29:46;9.50;99.90
45012;DHT22;63444;48.148;11.542;2023-04-19T15:32:12;9.40;99.90
45012;DHT22;63444;48.148;11.542;2023-04-19T15:34:38;9.40;99.90
45012;DHT22;63444;48.148;11.542;2023-04-19T15:37:04;9.40;99.90
45012;DHT22;63444;48.148;11.542;2023-04-19T15:39:33;9.50;99.90
45012;DHT22;63444;48.148;11.542;2023-04-19T15:41:58;9.50;99.90
45012;DHT22;63444;48.148;11.542;2023-04-19T15:44:24;9.50;99.90